Wednesday, February 22, 2017, 12:28 PM EST

KNHK, Nas Patuxent River Md

Location: Patuxent River, MD, United States Lat: 38.3
Local Time: 12:28 PM EST (17:28 GMT) Lon: -76.4
Time Zone: US/Eastern Elev: 39 ft

Show me the last for .
Show Decoded

2017-02-22 11:52 METAR KNHK 221652Z 13005KT 10SM BKN100 12/08 A2999 RMK AO2 SLP156 T01170083 =
2017-02-22 10:52 METAR KNHK 221552Z VRB05KT 10SM BKN100 11/09 A3002 RMK AO2 SLP165 T01110089 =
2017-02-22 09:52 METAR KNHK 221452Z COR 11003KT 10SM BKN030 OVC110 09/07 A3004 RMK AO2 SLP172
                 T00890072 58002 =
2017-02-22 08:52 METAR KNHK 221352Z 00000KT 10SM BKN110 OVC260 08/07 A3005 RMK AO2 SLP176
                 T00830072 =
2017-02-22 07:52 METAR KNHK 221252Z 00000KT 10SM BKN140 08/06 A3006 RMK AO2 SLP178 T00780061 =
2017-02-22 06:52 METAR KNHK 221152Z 00000KT 10SM FEW010 BKN160 07/06 A3005 RMK AO2 SLP174
                 T00720061 10072 20056 55000 =
2017-02-22 05:52 METAR KNHK 221052Z 00000KT 10SM BKN180 07/06 A3004 RMK AO2 SLP172 T00670061 =
2017-02-22 04:52 METAR KNHK 220952Z AUTO 00000KT 10SM CLR 06/06 A3004 RMK AO2 SLP173 T00610056 =
2017-02-22 03:52 METAR KNHK 220852Z AUTO 15003KT 10SM CLR 06/05 A3005 RMK AO2 SLP175 T00610050
                 56023 =
2017-02-22 02:52 METAR KNHK 220752Z AUTO 16004KT 10SM CLR 06/06 A3006 RMK AO2 SLP179 T00610056 =
2017-02-22 01:52 METAR KNHK 220652Z AUTO 15005KT 10SM CLR 06/06 A3009 RMK AO2 SLP189 T00610056 =
2017-02-22 00:52 METAR KNHK 220552Z AUTO 13004KT 10SM CLR 06/06 A3012 RMK AO2 SLP198 T00610056
                 10078 20061 56017 =
2017-02-21 23:52 METAR KNHK 220452Z AUTO 00000KT 10SM CLR 07/04 A3013 RMK AO2 SLP202 T00670044
                 401000028 =
2017-02-21 22:52 METAR KNHK 220352Z 16005KT 10SM BKN250 07/04 A3014 RMK AO2 SLP206 T00670039 =
2017-02-21 21:52 METAR KNHK 220252Z 16004KT 10SM BKN250 07/04 A3017 RMK AO2 SLP215 T00670044
                 58007 =
2017-02-21 20:52 METAR KNHK 220152Z 15006KT 10SM BKN250 07/04 A3018 RMK AO2 SLP219 T00720044 =
2017-02-21 19:52 METAR KNHK 220052Z 16007KT 10SM BKN250 08/04 A3019 RMK AO2 SLP222 T00780044 =
2017-02-21 18:52 METAR KNHK 212352Z 14006KT 10SM BKN250 08/05 A3019 RMK AO2 SLP222 T00780050
                 10100 20078 56007 =
2017-02-21 17:52 METAR KNHK 212252Z 15010KT 10SM SCT200 BKN250 08/04 A3019 RMK AO2 SLP224
                 T00780044 =
2017-02-21 16:52 METAR KNHK 212152Z 15009KT 10SM BKN200 BKN250 09/04 A3020 RMK AO2 SLP226
                 T00890039 =
2017-02-21 15:52 METAR KNHK 212052Z 14009KT 10SM FEW180 BKN250 09/04 A3021 RMK AO2 SLP229
                 T00890044 56026 =
2017-02-21 14:52 METAR KNHK 211952Z 13009KT 10SM FEW180 BKN250 10/04 A3022 RMK AO2 SLP235
                 T01000044 =
2017-02-21 13:52 METAR KNHK 211852Z 13009KT 10SM FEW180 BKN250 09/04 A3024 RMK AO2 SLP241
                 T00890039 =
2017-02-21 12:52 METAR KNHK 211752Z 14007KT 10SM FEW200 BKN250 09/03 A3028 RMK AO2 SLP255
                 T00940033 10094 20028 58019 =

Support USWX by starting your Amazon purchase here.